Time;durP1;ratioP1;P1;durP2;ratioP2;P2;SDS_P1;SDS_P2;PMS_P1;PMS_P2;Temp;Humidity;BMP_temperature;BMP_pressure;BME280_temperature;BME280_humidity;BME280_pressure;Samples;Min_cycle;Max_cycle;Signal;HPM_P1;HPM_P2
2024/01/20 00:00:08;;;;;;;44.20;29.73;;;3.90;99.90;;;3.97;84.85;102371.22;4966585;28;20088;-67
2024/01/20 00:02:36;;;;;;;44.10;30.55;;;3.80;99.90;;;3.96;85.25;102373.78;4964279;28;20043;-69
2024/01/20 00:05:05;;;;;;;43.30;30.83;;;3.80;99.90;;;3.97;85.06;102370.34;4967304;28;20051;-69
2024/01/20 00:07:34;;;;;;;45.03;29.93;;;3.80;99.90;;;4.02;85.42;102392.38;4964036;28;20058;-66
2024/01/20 00:10:02;;;;;;;42.63;29.67;;;3.80;99.90;;;4.05;85.07;102387.28;4967410;28;20050;-67
2024/01/20 00:12:33;;;;;;;46.13;31.07;;;3.80;99.90;;;4.02;85.09;102380.22;4964166;28;20098;-69
2024/01/20 00:15:05;;;;;;;43.73;29.73;;;3.80;99.90;;;4.01;84.81;102385.34;4955726;29;20054;-68
2024/01/20 00:17:36;;;;;;;46.43;31.03;;;3.80;99.90;;;3.95;84.86;102390.31;4964119;28;20055;-66
2024/01/20 00:20:06;;;;;;;52.00;33.25;;;3.80;99.90;;;3.90;84.74;102389.19;4966523;28;20102;-68
2024/01/20 00:22:34;;;;;;;45.65;33.20;;;3.70;99.90;;;3.86;84.97;102390.78;4964438;28;20483;-68
2024/01/20 00:25:04;;;;;;;45.30;30.60;;;3.70;99.90;;;3.73;85.16;102392.75;4966384;28;20468;-68
2024/01/20 00:27:34;;;;;;;46.47;32.30;;;3.60;99.90;;;3.68;85.45;102395.13;4964896;28;20401;-68
2024/01/20 00:30:05;;;;;;;46.70;31.80;;;3.60;99.90;;;3.71;85.64;102400.53;4965941;28;20038;-67
2024/01/20 00:32:33;;;;;;;45.73;31.03;;;3.50;99.90;;;3.74;85.34;102407.59;4965039;28;20101;-67
2024/01/20 00:35:04;;;;;;;45.97;31.65;;;3.50;99.90;;;3.68;85.76;102405.59;4965347;28;20401;-68
2024/01/20 00:37:38;;;;;;;51.10;32.30;;;3.50;99.90;;;3.73;85.23;102392.75;4928630;28;1082283;-66
2024/01/20 00:40:08;;;;;;;49.93;32.63;;;3.50;99.90;;;3.60;85.93;102401.75;4965149;28;20070;-68
2024/01/20 00:42:37;;;;;;;45.25;31.70;;;3.40;99.90;;;3.51;85.87;102390.81;4979647;28;20146;-69
2024/01/20 00:45:08;;;;;;;46.23;31.40;;;3.40;99.90;;;3.56;86.43;102394.56;4982499;28;20062;-68
2024/01/20 00:47:37;;;;;;;46.60;32.73;;;3.40;99.90;;;3.46;85.99;102397.56;4964346;28;20101;-67
2024/01/20 00:50:08;;;;;;;48.45;33.20;;;3.30;99.90;;;3.45;86.14;102406.22;4964271;28;20512;-67
2024/01/20 00:52:37;;;;;;;50.00;32.63;;;3.30;99.90;;;3.41;86.24;102404.25;4964291;28;20079;-67
2024/01/20 00:55:07;;;;;;;47.60;33.30;;;3.20;99.90;;;3.31;86.50;102407.28;4967789;28;20130;-66
2024/01/20 00:57:35;;;;;;;50.55;32.17;;;3.10;99.90;;;3.32;86.61;102409.06;4964652;28;20055;-68
2024/01/20 01:00:09;;;;;;;52.77;32.90;;;3.20;99.90;;;2.59;86.76;102269.50;4966195;28;20050;-69
2024/01/20 01:02:38;;;;;;;51.40;33.97;;;3.20;99.90;;;3.19;86.94;102398.81;4965200;28;20066;-69
2024/01/20 01:05:08;;;;;;;54.50;33.67;;;3.10;99.90;;;3.20;87.20;102403.22;4965275;28;20047;-68
2024/01/20 01:07:37;;;;;;;53.20;34.10;;;3.00;99.90;;;3.32;86.98;102399.50;4965316;28;20043;-68
2024/01/20 01:10:07;;;;;;;51.40;33.70;;;3.10;99.90;;;3.14;86.71;102371.53;4966128;28;20049;-69
2024/01/20 01:12:36;;;;;;;54.58;35.33;;;3.10;99.90;;;3.28;86.62;102386.19;4965713;28;20047;-69
2024/01/20 01:15:06;;;;;;;54.00;34.40;;;3.20;99.90;;;3.42;86.69;102416.53;4965968;28;20055;-67
2024/01/20 01:17:35;;;;;;;47.00;33.13;;;3.30;99.90;;;3.45;86.33;102404.50;4966387;28;20067;-68
2024/01/20 01:20:04;;;;;;;52.77;34.57;;;3.30;99.90;;;3.39;86.36;102419.88;4963860;28;20059;-69
2024/01/20 01:22:33;;;;;;;54.43;35.27;;;3.20;99.90;;;3.38;86.00;102412.88;4966011;28;20126;-68
2024/01/20 01:25:01;;;;;;;56.27;34.33;;;3.20;99.90;;;3.35;86.32;102425.78;4964593;28;20072;-68
2024/01/20 01:27:30;;;;;;;56.43;35.23;;;3.20;99.90;;;3.31;86.51;102423.84;4966020;28;20106;-66
2024/01/20 01:29:57;;;;;;;55.70;34.37;;;3.10;99.90;;;3.30;86.84;102416.84;4964287;28;20059;-68
2024/01/20 01:32:27;;;;;;;56.43;35.43;;;3.10;99.90;;;3.23;86.60;102409.47;4965860;28;20058;-68
2024/01/20 01:34:55;;;;;;;52.05;33.60;;;3.10;99.90;;;3.22;86.88;102406.81;4963286;28;20154;-68
2024/01/20 01:37:24;;;;;;;62.47;37.87;;;3.10;99.90;;;3.21;86.77;102410.25;4965806;28;20054;-69
2024/01/20 01:39:52;;;;;;;55.83;36.87;;;3.00;99.90;;;3.18;87.15;102415.31;4963347;28;20059;-69
2024/01/20 01:42:21;;;;;;;61.70;37.57;;;3.00;99.90;;;3.12;87.03;102407.16;4977910;28;20054;-66
2024/01/20 01:44:49;;;;;;;56.87;34.30;;;3.00;99.90;;;3.16;87.40;102416.94;4965922;28;20054;-69
2024/01/20 01:47:17;;;;;;;57.80;36.57;;;2.90;99.90;;;3.16;87.44;102416.94;4963937;28;20043;-69
2024/01/20 01:49:47;;;;;;;63.13;38.07;;;3.00;99.90;;;3.06;87.35;102410.38;4965835;28;20046;-68
2024/01/20 01:52:18;;;;;;;54.95;35.85;;;2.90;99.90;;;3.14;87.59;102413.34;4963964;28;20047;-68
2024/01/20 01:54:46;;;;;;;63.37;36.80;;;2.90;99.90;;;3.10;87.36;102421.88;4966412;28;20082;-68
2024/01/20 01:57:15;;;;;;;55.73;36.57;;;2.90;99.90;;;3.09;87.75;102414.84;4963302;28;20160;-68
2024/01/20 01:59:45;;;;;;;57.47;37.30;;;2.90;99.90;;;3.07;87.41;102409.56;4963484;28;20051;-68
2024/01/20 02:02:13;;;;;;;62.13;37.15;;;2.90;99.90;;;3.10;87.50;102417.53;4955045;29;20047;-68
2024/01/20 02:04:42;;;;;;;61.60;37.10;;;2.90;99.90;;;3.07;87.47;102416.50;4958495;28;20107;-68
2024/01/20 02:07:15;;;;;;;67.83;38.23;;;2.90;99.90;;;3.02;88.02;102423.22;4963294;28;20054;-67
2024/01/20 02:09:46;;;;;;;59.60;38.20;;;2.80;99.90;;;2.92;88.40;102418.34;4963519;28;20184;-68
2024/01/20 02:12:15;;;;;;;62.53;38.90;;;2.80;99.90;;;2.85;88.56;102427.56;4965356;28;20066;-68
2024/01/20 02:14:45;;;;;;;63.73;38.43;;;2.70;99.90;;;2.91;88.92;102430.50;4963957;28;20397;-68
2024/01/20 02:17:13;;;;;;;68.40;39.07;;;2.70;99.90;;;2.91;88.53;102419.13;4965223;28;20054;-67
2024/01/20 02:19:42;;;;;;;63.73;39.73;;;2.70;99.90;;;2.83;89.09;102420.50;4962568;28;20061;-68
2024/01/20 02:22:12;;;;;;;71.33;40.83;;;2.70;99.90;;;2.73;89.04;102417.38;4963776;28;20481;-69
2024/01/20 02:24:47;;;;;;;65.65;38.45;;;2.60;99.90;;;2.77;89.19;102425.41;4965032;28;20035;-69
2024/01/20 02:27:16;;;;;;;65.73;40.47;;;2.60;99.90;;;2.83;89.38;102426.59;4965547;28;20145;-68
2024/01/20 02:29:44;;;;;;;65.83;38.93;;;2.70;99.90;;;2.70;89.60;102404.19;4962268;28;20055;-68
2024/01/20 02:32:13;;;;;;;64.97;37.57;;;2.70;99.90;;;2.83;89.57;102431.81;4980189;28;20063;-69
2024/01/20 02:34:41;;;;;;;65.23;38.63;;;2.70;99.90;;;2.88;89.45;102429.44;4963117;28;20081;-68
2024/01/20 02:37:10;;;;;;;63.17;37.40;;;2.70;99.90;;;2.88;89.54;102435.59;4979858;28;20062;-68
2024/01/20 02:39:39;;;;;;;63.73;37.30;;;2.70;99.90;;;2.91;89.25;102435.72;4962095;28;20055;-67
2024/01/20 02:42:09;;;;;;;63.00;37.90;;;2.70;99.90;;;2.85;89.62;102432.78;4965702;28;20050;-68
2024/01/20 02:44:38;;;;;;;60.97;35.47;;;2.70;99.90;;;2.87;89.98;102435.47;4963012;28;20074;-68
2024/01/20 02:47:06;;;;;;;61.10;36.50;;;2.70;99.90;;;2.80;90.17;102441.22;4965939;28;20448;-68
2024/01/20 02:49:35;;;;;;;62.57;36.07;;;2.70;99.90;;;2.83;90.50;102437.03;4962448;28;20449;-69
2024/01/20 02:52:05;;;;;;;65.50;38.17;;;2.60;99.90;;;2.80;90.20;102442.13;4965385;28;20051;-67
2024/01/20 02:54:33;;;;;;;63.33;36.27;;;2.60;99.90;;;2.77;90.65;102433.22;4962113;28;20059;-68
2024/01/20 02:57:04;;;;;;;60.57;35.43;;;2.60;99.90;;;2.75;90.39;102428.81;4962115;28;20043;-68
2024/01/20 02:59:32;;;;;;;57.70;36.03;;;2.60;99.90;;;2.70;90.44;102413.72;4954277;28;20058;-68
2024/01/20 03:02:01;;;;;;;61.20;36.57;;;2.60;99.90;;;2.80;90.67;102434.28;4976738;28;20046;-69
2024/01/20 03:04:30;;;;;;;64.10;36.17;;;2.60;99.90;;;2.72;90.23;102444.34;4965981;28;20055;-69
2024/01/20 03:06:59;;;;;;;60.97;35.83;;;2.60;99.90;;;2.78;90.43;102450.69;4964273;28;20047;-68
2024/01/20 03:09:27;;;;;;;58.90;36.97;;;2.60;99.90;;;2.81;90.36;102449.13;4973986;28;20075;-68
2024/01/20 03:11:56;;;;;;;66.23;37.83;;;2.60;99.90;;;2.73;90.20;102440.00;4962156;28;20051;-68
2024/01/20 03:14:25;;;;;;;62.33;37.03;;;2.60;99.90;;;2.79;90.44;102444.66;4965425;28;20074;-68
2024/01/20 03:16:54;;;;;;;62.08;36.58;;;2.60;99.90;;;2.81;90.26;102435.19;4962621;28;20051;-67
2024/01/20 03:19:22;;;;;;;60.00;35.17;;;2.60;99.90;;;2.74;90.31;102444.41;4964898;28;20039;-68
2024/01/20 03:21:51;;;;;;;62.47;37.37;;;2.60;99.90;;;2.81;90.37;102446.50;4962452;28;20421;-68
2024/01/20 03:24:19;;;;;;;58.83;35.17;;;2.60;99.90;;;2.80;90.02;102449.06;4964817;28;20066;-68
2024/01/20 03:26:49;;;;;;;63.37;35.63;;;2.60;99.90;;;2.75;90.18;102452.31;4962451;28;20050;-67
2024/01/20 03:29:18;;;;;;;58.57;34.23;;;2.60;99.90;;;2.81;89.83;102445.66;4979524;28;20050;-67
2024/01/20 03:31:47;;;;;;;61.57;35.03;;;2.60;99.90;;;2.81;89.97;102448.25;4962925;28;20051;-68
2024/01/20 03:34:16;;;;;;;58.05;33.63;;;2.60;99.90;;;2.72;90.00;102444.34;4964214;28;20115;-67
2024/01/20 03:36:44;;;;;;;56.60;33.20;;;2.60;99.90;;;2.53;90.16;102422.41;4974720;28;20050;-68
2024/01/20 03:39:13;;;;;;;59.90;35.10;;;2.60;99.90;;;2.69;90.29;102443.28;4962852;28;20051;-68
2024/01/20 03:41:41;;;;;;;58.87;34.60;;;2.60;99.90;;;2.62;89.92;102441.16;4964187;28;20059;-68
2024/01/20 03:44:10;;;;;;;56.40;32.73;;;2.50;99.90;;;2.50;90.49;102420.50;4978059;28;20525;-68
2024/01/20 03:46:38;;;;;;;56.90;33.43;;;2.50;99.90;;;2.64;90.60;102442.13;4963807;28;20061;-67
2024/01/20 03:49:08;;;;;;;56.60;34.30;;;2.50;99.90;;;2.58;90.95;102441.81;4963439;28;20079;-68
2024/01/20 03:51:36;;;;;;;56.30;34.60;;;2.40;99.90;;;2.40;90.89;102423.44;4963817;28;20401;-68
2024/01/20 03:54:05;;;;;;;62.30;34.93;;;2.40;99.90;;;2.60;90.95;102448.91;4963439;28;20050;-68
2024/01/20 03:56:33;;;;;;;56.77;33.57;;;2.40;99.90;;;2.60;91.10;102448.91;4963578;28;20050;-68
2024/01/20 03:59:02;;;;;;;52.83;32.17;;;2.50;99.90;;;2.64;91.22;102457.81;4963185;28;20055;-69
2024/01/20 04:01:30;;;;;;;53.97;33.57;;;2.50;99.90;;;2.55;91.43;102453.00;4963316;28;20074;-68
2024/01/20 04:03:58;;;;;;;53.43;33.23;;;2.40;99.90;;;2.58;91.58;102461.00;4965808;28;20047;-67
2024/01/20 04:06:28;;;;;;;56.77;34.73;;;2.40;99.90;;;2.55;91.45;102457.31;4966850;28;20042;-68
2024/01/20 04:08:56;;;;;;;57.80;33.13;;;2.40;99.90;;;2.57;91.62;102454.00;4982118;28;20069;-68
2024/01/20 04:11:25;;;;;;;56.77;33.70;;;2.50;99.90;;;2.59;91.58;102457.53;4966363;28;20038;-69
2024/01/20 04:13:53;;;;;;;57.67;33.60;;;2.40;99.90;;;2.59;91.47;102456.66;4966869;28;20110;-69
2024/01/20 04:16:22;;;;;;;52.73;32.63;;;2.40;99.90;;;2.54;91.69;102447.69;4966383;28;20420;-68
2024/01/20 04:18:50;;;;;;;55.17;33.90;;;2.40;99.90;;;2.71;91.63;102459.91;4966810;28;20405;-69
2024/01/20 04:21:19;;;;;;;56.73;35.70;;;2.50;99.90;;;2.71;91.51;102460.81;4966190;28;20051;-68
2024/01/20 04:23:49;;;;;;;54.23;34.17;;;2.50;99.90;;;2.73;91.14;102458.28;4966837;28;20453;-68
2024/01/20 04:26:18;;;;;;;64.97;35.53;;;2.50;99.90;;;2.68;91.09;102457.16;4966285;28;20042;-68
2024/01/20 04:28:46;;;;;;;57.50;34.37;;;2.50;99.90;;;2.70;91.08;102452.91;4967152;28;20094;-68
2024/01/20 04:31:15;;;;;;;61.40;34.70;;;2.50;99.90;;;2.57;91.41;102458.31;4965709;28;20047;-69
2024/01/20 04:33:43;;;;;;;50.87;32.30;;;2.50;99.90;;;2.66;91.54;102456.16;4967174;28;20062;-68
2024/01/20 04:36:11;;;;;;;58.07;32.10;;;2.50;99.90;;;2.63;91.18;102450.78;4964379;28;20051;-68
2024/01/20 04:38:40;;;;;;;50.50;32.27;;;2.50;99.90;;;2.63;91.60;102456.91;4981958;28;20146;-68
2024/01/20 04:41:10;;;;;;;55.07;33.63;;;2.50;99.90;;;2.57;91.47;102453.09;4965146;28;20142;-68
2024/01/20 04:43:39;;;;;;;54.28;32.15;;;2.50;99.90;;;2.64;91.31;102455.19;4967936;28;20042;-68
2024/01/20 04:46:07;;;;;;;57.33;35.53;;;2.50;99.90;;;2.72;91.45;102452.19;4964776;28;20469;-68
2024/01/20 04:48:35;;;;;;;60.40;35.13;;;2.50;99.90;;;2.69;91.28;102458.97;4967245;28;20085;-68
2024/01/20 04:51:05;;;;;;;55.47;34.13;;;2.50;99.90;;;2.73;91.29;102461.78;4964992;28;20043;-68
2024/01/20 04:53:34;;;;;;;59.37;34.73;;;2.50;99.90;;;2.64;91.31;102456.09;4968110;28;20047;-68
2024/01/20 04:56:04;;;;;;;57.57;33.07;;;2.50;99.90;;;2.66;91.14;102457.06;4964350;28;20058;-68
2024/01/20 04:58:34;;;;;;;56.70;33.08;;;2.50;99.90;;;2.62;91.16;102465.56;4964239;28;20119;-67
2024/01/20 05:01:02;;;;;;;57.13;34.33;;;2.50;99.90;;;2.56;91.49;102467.84;4971275;28;20055;-69
2024/01/20 05:03:31;;;;;;;55.10;32.13;;;2.40;99.90;;;2.53;91.75;102467.69;4964350;28;20039;-69
2024/01/20 05:05:59;;;;;;;51.40;31.93;;;2.40;99.90;;;2.56;91.64;102474.78;4967452;28;20059;-68
2024/01/20 05:08:28;;;;;;;59.30;32.27;;;2.40;99.90;;;2.56;91.81;102473.06;4964269;28;20071;-68
2024/01/20 05:10:56;;;;;;;51.60;31.23;;;2.40;99.90;;;2.60;91.54;102484.56;4963824;28;20043;-69
2024/01/20 05:13:24;;;;;;;55.17;32.53;;;2.40;99.90;;;2.54;91.42;102476.41;4964101;28;20098;-67
2024/01/20 05:15:55;;;;;;;58.30;32.63;;;2.40;99.90;;;2.39;91.36;102463.44;4966361;28;20098;-67
2024/01/20 05:18:23;;;;;;;55.97;32.30;;;2.40;99.90;;;2.48;91.84;102476.06;4964094;28;20047;-68
2024/01/20 05:20:52;;;;;;;59.73;32.20;;;2.30;99.90;;;2.40;91.68;102480.88;4966740;28;20069;-68
2024/01/20 05:23:20;;;;;;;54.03;31.17;;;2.40;99.90;;;2.41;91.86;102493.13;4964129;28;20047;-68
2024/01/20 05:25:49;;;;;;;54.27;31.63;;;2.30;99.90;;;2.41;92.06;102493.13;4981719;28;20385;-68
2024/01/20 05:28:17;;;;;;;57.60;31.37;;;2.30;99.90;;;2.45;91.76;102489.88;4964087;28;20493;-68
2024/01/20 05:30:45;;;;;;;48.37;30.07;;;2.30;99.90;;;2.32;91.85;102491.75;4981511;28;20460;-68
2024/01/20 05:33:15;;;;;;;54.53;30.30;;;2.20;99.90;;;2.37;92.57;102495.50;4964002;28;20055;-68
2024/01/20 05:35:44;;;;;;;51.80;32.28;;;2.20;99.90;;;2.46;92.12;102504.72;4966739;28;20077;-69
2024/01/20 05:38:12;;;;;;;53.57;31.07;;;2.30;99.90;;;2.54;92.10;102505.13;4964001;28;20146;-69
2024/01/20 05:40:40;;;;;;;56.27;31.30;;;2.30;99.90;;;2.49;91.88;102504.91;4966038;28;20082;-67
2024/01/20 05:43:09;;;;;;;52.83;31.13;;;2.30;99.90;;;2.38;91.93;102500.78;4964308;28;20051;-69
2024/01/20 05:45:37;;;;;;;53.37;30.23;;;2.30;99.90;;;2.40;92.09;102507.00;4965879;28;20043;-69
2024/01/20 05:48:06;;;;;;;56.80;30.63;;;2.30;99.90;;;2.46;92.38;102509.03;4964043;28;20053;-69
2024/01/20 05:50:36;;;;;;;52.37;28.83;;;2.30;99.90;;;2.50;92.20;102508.38;4965824;28;20042;-69
2024/01/20 05:53:05;;;;;;;55.55;29.10;;;2.30;99.90;;;2.42;92.13;102510.59;4964624;28;20134;-69
2024/01/20 05:55:34;;;;;;;49.37;29.00;;;2.30;99.90;;;2.52;92.03;102519.81;4964257;28;20551;-69
2024/01/20 05:58:02;;;;;;;52.47;29.30;;;2.30;99.90;;;2.48;92.01;102516.16;4964880;28;20055;-68
2024/01/20 06:00:31;;;;;;;48.83;29.13;;;2.30;99.90;;;2.48;92.08;102518.75;4964941;28;20050;-68
2024/01/20 06:02:59;;;;;;;48.90;27.97;;;2.30;99.90;;;2.42;92.21;102520.16;4960111;28;20123;-68
2024/01/20 06:05:28;;;;;;;52.97;28.60;;;2.30;99.90;;;2.34;92.32;102524.06;4964469;28;20138;-68
2024/01/20 06:07:57;;;;;;;50.87;29.33;;;2.20;99.90;;;2.38;92.32;102524.28;4964653;28;20121;-68
2024/01/20 06:10:26;;;;;;;47.45;27.75;;;2.20;99.90;;;2.39;92.55;102526.09;4963494;28;20061;-69
2024/01/20 06:12:55;;;;;;;53.93;30.83;;;2.20;99.90;;;2.31;92.44;102513.44;4964571;28;20083;-69
2024/01/20 06:15:23;;;;;;;50.40;28.07;;;2.20;99.90;;;2.35;92.24;102516.31;4964871;28;20059;-68
2024/01/20 06:17:52;;;;;;;50.07;28.23;;;2.20;99.90;;;2.28;92.50;102516.78;4964222;28;20484;-68
2024/01/20 06:20:21;;;;;;;48.47;28.47;;;2.20;99.90;;;2.18;92.75;102517.09;4964782;28;20396;-67
2024/01/20 06:22:49;;;;;;;50.70;29.20;;;2.10;99.90;;;2.11;93.06;102499.28;4964038;28;20074;-68
2024/01/20 06:25:19;;;;;;;50.50;28.13;;;2.00;99.90;;;2.21;92.99;102524.16;4964722;28;20043;-70
2024/01/20 06:27:47;;;;;;;48.00;28.00;;;2.10;99.90;;;2.26;92.86;102526.25;4963495;28;20570;-67
2024/01/20 06:30:16;;;;;;;48.23;28.70;;;2.10;99.90;;;2.28;92.72;102522.00;4964822;28;20103;-71
2024/01/20 06:32:45;;;;;;;50.50;27.60;;;2.10;99.90;;;2.13;92.31;102495.03;4963409;28;20047;-69
2024/01/20 06:35:13;;;;;;;51.90;29.03;;;2.20;99.90;;;2.27;92.94;102530.63;4964924;28;20077;-69
2024/01/20 06:37:42;;;;;;;50.03;28.03;;;2.10;99.90;;;2.22;92.72;102525.97;4963529;28;20114;-68
2024/01/20 06:40:11;;;;;;;51.30;28.33;;;2.10;99.90;;;2.28;93.08;102535.06;4964906;28;20051;-70
2024/01/20 06:42:41;;;;;;;48.67;28.55;;;2.20;99.90;;;2.27;92.63;102522.81;4978127;28;20051;-68
2024/01/20 06:45:10;;;;;;;56.85;29.48;;;2.10;99.90;;;2.22;92.71;102539.03;4965386;28;20054;-72
2024/01/20 06:47:39;;;;;;;52.43;28.63;;;2.10;99.90;;;2.24;92.78;102526.97;4962578;28;20043;-69
2024/01/20 06:50:09;;;;;;;48.57;29.83;;;2.20;99.90;;;2.35;92.54;102539.78;4977081;28;20520;-70
2024/01/20 06:52:37;;;;;;;55.30;28.92;;;2.20;99.90;;;2.37;92.13;102548.63;4965534;28;20051;-69
2024/01/20 06:55:06;;;;;;;55.20;28.33;;;2.20;99.90;;;2.39;92.30;102546.06;4962375;28;20134;-69
2024/01/20 06:57:35;;;;;;;52.97;29.37;;;2.20;99.90;;;2.22;92.72;102550.38;4962479;28;20086;-69
2024/01/20 07:00:08;;;;;;;51.57;28.33;;;2.20;99.90;;;2.26;92.67;102547.13;4962107;28;20137;-69
2024/01/20 07:02:37;;;;;;;51.37;28.50;;;2.10;99.90;;;2.32;92.82;102549.19;4953230;29;20055;-68
2024/01/20 07:05:06;;;;;;;50.30;27.90;;;2.10;99.90;;;2.35;92.54;102542.41;4954033;29;20043;-69
2024/01/20 07:07:38;;;;;;;53.33;27.97;;;2.20;99.90;;;2.27;92.61;102545.38;4954114;29;20051;-70
2024/01/20 07:10:08;;;;;;;53.47;28.50;;;2.10;99.90;;;2.24;92.73;102540.00;4954025;28;20102;-73
2024/01/20 07:12:37;;;;;;;50.67;29.13;;;2.10;99.90;;;2.34;92.79;102553.66;4954226;29;20125;-67
2024/01/20 07:15:09;;;;;;;54.83;29.43;;;2.20;99.90;;;2.25;92.69;102553.16;4953903;29;20066;-70
2024/01/20 07:17:37;;;;;;;48.87;28.97;;;2.10;99.90;;;2.25;92.74;102558.38;4961849;28;20043;-71
2024/01/20 07:20:07;;;;;;;46.83;27.73;;;2.10;99.90;;;2.20;92.77;102553.72;4963908;28;20481;-72
2024/01/20 07:22:36;;;;;;;53.42;28.67;;;2.10;99.90;;;2.20;93.36;102553.72;4963255;28;20065;-69
2024/01/20 07:25:05;;;;;;;56.57;30.10;;;2.10;99.90;;;2.21;93.10;102555.47;4964025;28;20043;-67
2024/01/20 07:27:34;;;;;;;52.07;30.13;;;2.10;99.90;;;2.25;93.58;102552.25;4963135;28;20078;-69
2024/01/20 07:30:04;;;;;;;51.43;29.33;;;2.10;99.90;;;2.16;93.51;102552.66;4964198;28;20043;-69
2024/01/20 07:32:35;;;;;;;50.97;30.00;;;2.00;99.90;;;2.23;94.14;102552.16;4962536;28;20049;-68
2024/01/20 07:35:05;;;;;;;53.40;29.20;;;2.10;99.90;;;2.21;93.87;102534.59;4964853;28;20051;-68
2024/01/20 07:37:35;;;;;;;51.72;29.55;;;2.10;99.90;;;2.22;94.19;102552.09;4961897;28;20043;-67
2024/01/20 07:40:05;;;;;;;50.37;28.20;;;2.10;99.90;;;2.25;94.34;102553.16;4957562;29;20068;-72
2024/01/20 07:42:34;;;;;;;55.55;29.52;;;2.10;99.90;;;2.18;94.22;102551.03;4965548;28;20055;-73
2024/01/20 07:45:05;;;;;;;51.92;30.17;;;2.10;99.90;;;2.11;94.75;102556.69;4965745;28;20055;-67
2024/01/20 07:47:34;;;;;;;54.30;28.57;;;2.00;99.90;;;2.11;95.01;102550.59;4969014;28;20054;-67
2024/01/20 07:50:03;;;;;;;46.50;26.85;;;2.00;99.90;;;2.24;95.19;102553.97;4965783;28;20489;-66
2024/01/20 07:52:32;;;;;;;46.20;27.77;;;2.10;99.90;;;2.20;94.87;102549.41;4968438;28;20038;-67
2024/01/20 07:55:01;;;;;;;51.65;27.27;;;2.10;99.90;;;2.19;95.05;102568.47;4966057;28;20073;-70
2024/01/20 07:57:30;;;;;;;47.10;27.20;;;2.10;99.90;;;2.10;95.07;102557.50;4967796;28;20052;-69
2024/01/20 07:59:58;;;;;;;46.60;27.07;;;2.00;99.90;;;2.15;95.34;102552.56;4966098;28;20050;-71
2024/01/20 08:02:27;;;;;;;51.10;27.30;;;2.00;99.90;;;2.08;95.40;102569.56;4967826;28;20053;-71
2024/01/20 08:04:57;;;;;;;47.67;27.77;;;2.00;99.90;;;2.12;95.81;102560.19;4961605;28;20050;-72
2024/01/20 08:07:25;;;;;;;51.03;28.75;;;2.00;99.90;;;2.23;95.53;102570.44;4966155;28;20400;-69
2024/01/20 08:09:54;;;;;;;55.73;31.27;;;2.10;99.90;;;2.37;95.71;102569.50;4967410;28;20059;-71
2024/01/20 08:12:22;;;;;;;53.03;31.87;;;2.20;99.90;;;2.35;94.84;102585.88;4965955;28;20043;-78
2024/01/20 08:14:51;;;;;;;56.77;32.03;;;2.20;99.90;;;2.30;95.21;102587.34;4963274;28;20385;-67
2024/01/20 08:17:20;;;;;;;57.27;30.50;;;2.20;99.90;;;2.30;95.33;102587.34;4956857;29;20051;-68
2024/01/20 08:19:49;;;;;;;52.97;30.40;;;2.20;99.90;;;2.22;94.98;102570.34;4955251;29;20063;-64
2024/01/20 08:22:19;;;;;;;54.77;31.20;;;2.20;99.90;;;2.25;95.11;102581.84;4955820;29;20103;-69
2024/01/20 08:24:48;;;;;;;60.60;32.53;;;2.10;99.90;;;2.31;94.97;102573.47;4954170;29;20114;-69
2024/01/20 08:27:16;;;;;;;61.93;35.00;;;2.10;99.90;;;2.06;95.50;102560.75;4955295;29;20098;-73
2024/01/20 08:29:45;;;;;;;62.83;33.50;;;2.10;99.90;;;2.15;95.37;102596.94;4955265;28;20475;-68
2024/01/20 08:32:13;;;;;;;56.80;33.90;;;2.00;99.90;;;2.19;96.08;102601.50;4955087;29;20401;-70
2024/01/20 08:34:41;;;;;;;57.57;33.30;;;2.00;99.90;;;2.22;96.20;102602.59;4953499;28;20043;-66
2024/01/20 08:37:10;;;;;;;65.60;36.13;;;2.10;99.90;;;2.26;95.76;102596.72;4954862;29;20053;-65
2024/01/20 08:39:40;;;;;;;64.03;35.97;;;2.20;99.90;;;2.22;96.23;102615.63;4954430;29;20055;-69
2024/01/20 08:42:08;;;;;;;63.53;37.10;;;2.10;99.90;;;2.24;96.11;102608.78;4953642;28;20054;-68
2024/01/20 08:44:37;;;;;;;67.83;39.47;;;2.10;99.90;;;2.29;96.49;102617.78;4954736;29;20051;-68
2024/01/20 08:47:05;;;;;;;67.17;37.27;;;2.20;99.90;;;2.34;96.85;102620.66;4954499;29;20055;-66
2024/01/20 08:49:34;;;;;;;61.83;37.83;;;2.20;99.90;;;2.41;96.90;102613.25;4954469;28;20039;-67
2024/01/20 08:52:02;;;;;;;64.97;37.90;;;2.30;99.90;;;2.59;97.15;102614.25;4954826;29;20047;-70
2024/01/20 08:54:30;;;;;;;65.63;37.07;;;2.40;99.90;;;2.66;96.76;102616.41;4954810;29;20130;-67
2024/01/20 08:57:00;;;;;;;65.93;38.97;;;2.50;99.90;;;2.77;95.92;102603.03;4954622;29;20078;-69
2024/01/20 08:59:29;;;;;;;70.60;40.13;;;2.60;99.90;;;2.79;95.54;102602.28;4954495;29;20054;-68
2024/01/20 09:01:57;;;;;;;60.50;35.23;;;2.70;99.90;;;2.82;95.09;102602.47;4954482;29;20121;-69
2024/01/20 09:04:26;;;;;;;61.93;33.97;;;2.70;99.90;;;2.79;94.73;102607.50;4954742;29;20110;-70
2024/01/20 09:06:54;;;;;;;54.53;33.03;;;2.70;99.90;;;2.85;94.88;102600.00;4954472;29;20054;-70
2024/01/20 09:09:23;;;;;;;54.33;31.00;;;2.70;99.90;;;2.80;94.77;102603.19;4954724;29;20172;-69
2024/01/20 09:11:51;;;;;;;53.30;31.13;;;2.70;99.90;;;2.98;94.50;102610.31;4954460;28;20045;-70
2024/01/20 09:14:21;;;;;;;51.57;28.57;;;2.80;99.90;;;2.97;94.42;102605.91;4954649;28;20044;-69
2024/01/20 09:16:50;;;;;;;50.80;29.30;;;2.80;99.90;;;3.05;93.66;102612.44;4954280;28;20124;-68
2024/01/20 09:19:18;;;;;;;45.53;27.27;;;2.90;99.90;;;3.09;93.65;102613.50;4954094;29;20051;-68
2024/01/20 09:21:47;;;;;;;44.23;26.03;;;3.00;99.90;;;3.02;93.69;102569.56;4954232;29;20141;-67
2024/01/20 09:24:15;;;;;;;41.83;25.47;;;3.10;99.90;;;3.55;93.69;102628.19;4954426;29;20130;-68
2024/01/20 09:26:44;;;;;;;47.20;25.93;;;3.30;99.90;;;3.76;92.81;102624.06;4969273;28;20497;-69
2024/01/20 09:29:12;;;;;;;40.47;24.60;;;3.50;99.90;;;3.98;92.04;102620.81;4954084;29;20059;-72
2024/01/20 09:31:42;;;;;;;40.57;23.67;;;3.80;99.90;;;4.04;91.05;102622.03;4954254;29;20176;-67
2024/01/20 09:34:10;;;;;;;42.92;24.60;;;3.90;99.90;;;3.99;89.34;102618.25;4953984;29;20540;-71
2024/01/20 09:36:39;;;;;;;39.30;23.20;;;3.90;99.90;;;3.93;89.13;102622.31;4953915;29;20039;-67
2024/01/20 09:39:11;;;;;;;37.53;21.47;;;3.80;99.90;;;3.91;89.04;102626.56;4954013;29;20078;-67
2024/01/20 09:41:40;;;;;;;38.77;22.77;;;3.70;99.90;;;3.84;88.84;102627.97;4954029;29;20078;-67
2024/01/20 09:44:12;;;;;;;34.45;21.33;;;3.70;99.90;;;3.80;88.54;102620.78;4953763;28;20168;-66
2024/01/20 09:46:42;;;;;;;37.03;20.70;;;3.70;99.90;;;3.81;88.78;102616.44;4953767;28;20047;-66
2024/01/20 09:49:11;;;;;;;38.10;23.73;;;3.60;99.90;;;3.82;88.85;102616.50;4954220;29;20102;-73
2024/01/20 09:51:49;;;;;;;36.83;22.23;;;3.70;99.90;;;3.93;88.79;102627.53;4953537;29;20070;-66
2024/01/20 09:54:19;;;;;;;32.63;21.73;;;3.70;99.90;;;4.00;88.38;102634.88;4953586;29;20098;-66
2024/01/20 09:56:48;;;;;;;35.13;21.80;;;3.80;99.90;;;4.00;88.43;102630.53;4968670;28;20067;-67
2024/01/20 09:59:19;;;;;;;32.30;20.10;;;3.80;99.90;;;3.81;87.99;102627.81;4953489;29;20063;-66
2024/01/20 10:01:51;;;;;;;35.20;21.73;;;3.70;99.90;;;3.86;88.09;102639.41;4952847;28;20050;-66
2024/01/20 10:04:22;;;;;;;32.00;20.17;;;3.70;99.90;;;3.89;88.02;102649.16;4953961;29;20150;-69
2024/01/20 10:06:54;;;;;;;31.33;20.23;;;3.70;99.90;;;3.83;88.16;102649.75;4953541;29;20071;-72
2024/01/20 10:09:22;;;;;;;36.27;21.10;;;3.70;99.90;;;3.82;88.41;102655.78;4953666;29;20488;-71
2024/01/20 10:11:51;;;;;;;36.80;21.50;;;3.70;99.90;;;4.12;88.95;102652.06;4953241;29;20047;-68
2024/01/20 10:14:19;;;;;;;33.30;20.73;;;3.90;99.90;;;4.28;87.65;102643.25;4953515;29;20122;-68
2024/01/20 10:16:50;;;;;;;35.17;21.77;;;4.10;99.90;;;4.09;86.48;102632.69;4953492;29;20067;-68
2024/01/20 10:19:18;;;;;;;35.85;23.20;;;4.00;99.90;;;4.16;86.20;102648.78;4953112;28;20043;-68